Time;durP1;ratioP1;P1;durP2;ratioP2;P2;SDS_P1;SDS_P2;PMS_P1;PMS_P2;Temp;Humidity;BMP_temperature;BMP_pressure;BME280_temperature;BME280_humidity;BME280_pressure;Samples;Min_cycle;Max_cycle;Signal;HPM_P1;HPM_P2
2023/07/10 00:00:59;;;;;;;;;4.25;4.25;;;;;;;;2087847;28;46144;-47
2023/07/10 00:01:59;;;;;;;;;4.50;3.75;;;;;;;;2088084;28;46874;-51
2023/07/10 00:02:59;;;;;;;;;6.50;5.00;;;;;;;;2088019;28;46483;-49
2023/07/10 00:04:00;;;;;;;;;3.00;3.00;;;;;;;;2087884;28;46839;-51
2023/07/10 00:05:00;;;;;;;;;2.00;2.00;;;;;;;;2088286;28;45912;-52
2023/07/10 00:06:00;;;;;;;;;4.00;3.50;;;;;;;;2088320;28;45567;-53
2023/07/10 00:07:00;;;;;;;;;4.00;2.00;;;;;;;;2087751;28;46706;-49
2023/07/10 00:08:01;;;;;;;;;5.75;5.00;;;;;;;;2088223;28;46646;-51
2023/07/10 00:09:01;;;;;;;;;6.75;5.75;;;;;;;;2087678;28;46314;-52
2023/07/10 00:10:02;;;;;;;;;7.50;4.50;;;;;;;;2088589;28;46588;-51
2023/07/10 00:11:02;;;;;;;;;8.25;8.25;;;;;;;;2087963;28;46299;-51
2023/07/10 00:12:03;;;;;;;;;9.25;7.25;;;;;;;;2087253;28;46781;-52
2023/07/10 00:13:03;;;;;;;;;7.20;7.20;;;;;;;;2088243;28;46940;-52
2023/07/10 00:14:16;;;;;;;;;8.00;7.00;;;;;;;;2087892;28;46764;-53
2023/07/10 00:15:20;;;;;;;;;9.60;7.20;;;;;;;;2085294;28;46879;-52
2023/07/10 00:16:21;;;;;;;;;5.00;4.80;;;;;;;;2087061;28;45972;-51
2023/07/10 00:17:22;;;;;;;;;6.75;6.75;;;;;;;;2084106;28;46710;-52
2023/07/10 00:18:22;;;;;;;;;4.50;4.50;;;;;;;;2084266;28;46489;-49
2023/07/10 00:19:23;;;;;;;;;3.50;3.50;;;;;;;;2087358;28;47000;-49
2023/07/10 00:20:25;;;;;;;;;4.50;4.50;;;;;;;;2088310;28;46604;-48
2023/07/10 00:21:25;;;;;;;;;6.60;5.80;;;;;;;;2088025;28;46258;-52
2023/07/10 00:22:26;;;;;;;;;5.00;5.00;;;;;;;;2088101;28;46413;-49
2023/07/10 00:23:26;;;;;;;;;4.50;4.00;;;;;;;;2088527;28;46321;-49
2023/07/10 00:24:26;;;;;;;;;6.50;5.00;;;;;;;;2087931;28;46396;-50
2023/07/10 00:25:27;;;;;;;;;9.25;9.25;;;;;;;;2087363;28;46214;-48
2023/07/10 00:26:27;;;;;;;;;16.20;13.80;;;;;;;;2087908;28;46287;-48
2023/07/10 00:27:27;;;;;;;;;18.00;16.75;;;;;;;;2088310;28;46491;-49
2023/07/10 00:28:28;;;;;;;;;15.00;14.25;;;;;;;;2093793;28;46108;-52
2023/07/10 00:29:31;;;;;;;;;15.25;13.25;;;;;;;;2095279;28;46313;-49
2023/07/10 00:30:32;;;;;;;;;15.00;13.20;;;;;;;;2087824;28;46578;-48
2023/07/10 00:31:32;;;;;;;;;16.50;16.50;;;;;;;;2086723;28;46098;-49
2023/07/10 00:32:33;;;;;;;;;12.50;12.25;;;;;;;;2087750;28;46358;-50
2023/07/10 00:33:33;;;;;;;;;19.00;18.75;;;;;;;;2087666;28;46621;-50
2023/07/10 00:34:33;;;;;;;;;15.25;13.75;;;;;;;;2087803;28;46513;-50
2023/07/10 00:35:33;;;;;;;;;17.00;16.75;;;;;;;;2087994;28;46786;-48
2023/07/10 00:36:43;;;;;;;;;29.50;26.00;;;;;;;;2088022;28;45218;-51
2023/07/10 00:37:49;;;;;;;;;28.80;26.20;;;;;;;;2087804;28;46499;-48
2023/07/10 00:38:49;;;;;;;;;19.40;18.40;;;;;;;;2087913;28;46774;-47
2023/07/10 00:39:49;;;;;;;;;17.75;15.50;;;;;;;;2088160;28;46301;-48
2023/07/10 00:40:50;;;;;;;;;11.75;11.50;;;;;;;;2088097;28;46504;-46
2023/07/10 00:41:58;;;;;;;;;6.75;6.75;;;;;;;;2088037;28;45612;-47
2023/07/10 00:43:18;;;;;;;;;7.60;7.40;;;;;;;;2088146;28;46167;-49
2023/07/10 00:44:20;;;;;;;;;5.20;3.80;;;;;;;;2079005;28;47168;-48
2023/07/10 00:45:21;;;;;;;;;8.80;8.40;;;;;;;;2078785;28;46557;-50
2023/07/10 00:46:31;;;;;;;;;5.25;5.25;;;;;;;;2078892;28;46106;-49
2023/07/10 00:47:32;;;;;;;;;16.60;14.20;;;;;;;;2078362;28;46947;-51
2023/07/10 00:48:41;;;;;;;;;12.50;11.25;;;;;;;;2078495;28;46571;-52
2023/07/10 00:49:47;;;;;;;;;8.40;7.20;;;;;;;;2078337;28;46727;-52
2023/07/10 00:50:49;;;;;;;;;9.20;9.20;;;;;;;;2078576;28;46405;-51
2023/07/10 00:51:52;;;;;;;;;12.20;10.60;;;;;;;;2078750;28;46970;-51
2023/07/10 00:52:52;;;;;;;;;10.80;7.80;;;;;;;;2077991;28;46541;-49
2023/07/10 00:53:54;;;;;;;;;6.75;6.50;;;;;;;;2078981;28;46599;-49
2023/07/10 00:54:57;;;;;;;;;6.00;6.00;;;;;;;;2078592;28;47031;-51
2023/07/10 00:56:00;;;;;;;;;3.60;3.60;;;;;;;;2069551;28;48066;-47
2023/07/10 00:57:03;;;;;;;;;5.20;4.80;;;;;;;;2070417;28;46895;-47
2023/07/10 00:58:15;;;;;;;;;4.50;4.50;;;;;;;;2078664;28;46974;-50
2023/07/10 00:59:24;;;;;;;;;4.00;4.00;;;;;;;;2077680;28;45799;-52
2023/07/10 01:00:24;;;;;;;;;6.20;4.00;;;;;;;;2070362;28;46048;-51
2023/07/10 01:01:24;;;;;;;;;5.25;5.25;;;;;;;;2070990;28;46247;-49
2023/07/10 01:02:25;;;;;;;;;3.33;3.33;;;;;;;;2075212;28;46668;-50
2023/07/10 01:03:25;;;;;;;;;3.00;3.00;;;;;;;;2078697;28;47035;-48
2023/07/10 01:04:25;;;;;;;;;4.00;4.00;;;;;;;;2077448;28;46536;-49
2023/07/10 01:05:27;;;;;;;;;5.75;3.00;;;;;;;;2078978;28;46367;-49
2023/07/10 01:06:29;;;;;;;;;3.50;3.50;;;;;;;;2079924;28;46376;-51
2023/07/10 01:07:32;;;;;;;;;3.00;3.00;;;;;;;;2080060;28;45889;-50
2023/07/10 01:08:34;;;;;;;;;4.50;3.25;;;;;;;;2080377;28;45800;-50
2023/07/10 01:09:35;;;;;;;;;3.00;3.00;;;;;;;;2071944;28;46575;-50
2023/07/10 01:10:35;;;;;;;;;5.00;5.00;;;;;;;;2071510;28;46821;-48
2023/07/10 01:11:36;;;;;;;;;3.00;3.00;;;;;;;;2079750;28;46902;-48
2023/07/10 01:12:38;;;;;;;;;3.00;3.00;;;;;;;;2079824;28;46741;-47
2023/07/10 01:13:41;;;;;;;;;3.50;3.00;;;;;;;;2079995;28;46942;-49
2023/07/10 01:14:41;;;;;;;;;4.00;3.50;;;;;;;;2080081;28;46882;-49
2023/07/10 01:15:41;;;;;;;;;2.33;2.33;;;;;;;;2079991;28;46567;-50
2023/07/10 01:16:41;;;;;;;;;4.00;3.67;;;;;;;;2082476;28;46493;-48
2023/07/10 01:17:42;;;;;;;;;4.33;4.33;;;;;;;;2088048;28;46291;-47
2023/07/10 01:18:42;;;;;;;;;4.00;4.00;;;;;;;;2083077;28;46797;-49
2023/07/10 01:19:45;;;;;;;;;3.00;3.00;;;;;;;;2080408;28;46263;-52
2023/07/10 01:20:49;;;;;;;;;2.00;2.00;;;;;;;;2079658;28;46427;-49
2023/07/10 01:21:50;;;;;;;;;3.75;3.75;;;;;;;;2080686;28;45682;-49
2023/07/10 01:22:50;;;;;;;;;3.00;3.00;;;;;;;;2089961;28;46755;-50
2023/07/10 01:23:51;;;;;;;;;3.67;3.33;;;;;;;;2088977;28;45762;-52
2023/07/10 01:24:52;;;;;;;;;4.25;3.75;;;;;;;;2089440;28;46487;-52
2023/07/10 01:25:57;;;;;;;;;4.00;4.00;;;;;;;;2088074;28;47306;-49
2023/07/10 01:26:58;;;;;;;;;3.25;3.00;;;;;;;;2089067;28;46880;-52
2023/07/10 01:27:58;;;;;;;;;4.00;3.00;;;;;;;;2088381;28;46310;-50
2023/07/10 01:28:58;;;;;;;;;6.00;6.00;;;;;;;;2089221;28;46306;-49
2023/07/10 01:30:04;;;;;;;;;7.00;4.00;;;;;;;;2088975;28;45941;-51
2023/07/10 01:31:06;;;;;;;;;2.00;2.00;;;;;;;;2088773;28;46632;-52
2023/07/10 01:32:07;;;;;;;;;2.25;2.25;;;;;;;;2088656;28;46864;-52
2023/07/10 01:33:09;;;;;;;;;5.00;4.67;;;;;;;;2096221;28;46105;-50
2023/07/10 01:34:10;;;;;;;;;4.25;4.25;;;;;;;;2096087;28;46577;-49
2023/07/10 01:35:13;;;;;;;;;4.33;3.00;;;;;;;;2088904;28;46323;-49
2023/07/10 01:36:15;;;;;;;;;4.50;4.50;;;;;;;;2089351;28;46381;-52
2023/07/10 01:37:15;;;;;;;;;4.50;4.00;;;;;;;;2087908;28;46801;-52
2023/07/10 01:38:15;;;;;;;;;4.67;4.00;;;;;;;;2088791;28;46205;-47
2023/07/10 01:39:15;;;;;;;;;6.33;5.33;;;;;;;;2089304;28;46475;-48
2023/07/10 01:40:20;;;;;;;;;5.33;4.33;;;;;;;;2088567;28;46800;-51
2023/07/10 01:41:28;;;;;;;;;2.75;2.75;;;;;;;;2089392;28;45114;-48
2023/07/10 01:42:28;;;;;;;;;5.00;4.00;;;;;;;;2089138;28;46946;-50
2023/07/10 01:43:28;;;;;;;;;4.00;4.00;;;;;;;;2088766;28;46595;-52
2023/07/10 01:44:30;;;;;;;;;2.00;2.00;;;;;;;;2089187;28;47048;-50
2023/07/10 01:45:40;;;;;;;;;3.00;3.00;;;;;;;;2088699;28;46319;-50
2023/07/10 01:46:40;;;;;;;;;6.75;6.00;;;;;;;;2087659;28;47148;-47
2023/07/10 01:47:40;;;;;;;;;6.25;6.25;;;;;;;;2089482;28;46183;-49
2023/07/10 01:48:40;;;;;;;;;4.00;4.00;;;;;;;;2089410;28;45732;-49
2023/07/10 01:49:47;;;;;;;;;4.00;4.00;;;;;;;;2088743;28;46641;-46
2023/07/10 01:50:47;;;;;;;;;5.75;4.75;;;;;;;;2089479;28;45876;-50
2023/07/10 01:51:48;;;;;;;;;7.67;6.00;;;;;;;;2089410;28;46704;-48
2023/07/10 01:52:48;;;;;;;;;6.25;5.00;;;;;;;;2088918;28;46287;-51
2023/07/10 01:53:48;;;;;;;;;4.50;4.50;;;;;;;;2089291;28;46985;-47
2023/07/10 01:54:49;;;;;;;;;7.00;7.00;;;;;;;;2087892;28;47379;-46
2023/07/10 01:55:49;;;;;;;;;8.50;7.25;;;;;;;;2088697;28;46516;-47
2023/07/10 01:56:51;;;;;;;;;7.00;7.00;;;;;;;;2088976;28;45243;-46
2023/07/10 01:57:51;;;;;;;;;6.50;6.25;;;;;;;;2095161;28;46978;-49
2023/07/10 01:58:52;;;;;;;;;8.25;7.00;;;;;;;;2096416;28;47041;-49
2023/07/10 01:59:53;;;;;;;;;8.20;8.00;;;;;;;;2088185;28;46550;-52
2023/07/10 02:00:53;;;;;;;;;6.75;6.75;;;;;;;;2088338;28;46391;-48
2023/07/10 02:01:54;;;;;;;;;8.50;7.75;;;;;;;;2088969;28;46869;-51
2023/07/10 02:02:54;;;;;;;;;6.60;6.60;;;;;;;;2088593;28;46636;-53
2023/07/10 02:03:54;;;;;;;;;7.00;7.00;;;;;;;;2087934;28;46332;-49
2023/07/10 02:04:55;;;;;;;;;5.50;5.50;;;;;;;;2089301;28;46677;-50
2023/07/10 02:05:55;;;;;;;;;8.00;7.00;;;;;;;;2088405;28;46769;-48
2023/07/10 02:06:55;;;;;;;;;7.25;7.25;;;;;;;;2080100;28;45841;-51
2023/07/10 02:07:56;;;;;;;;;6.75;6.00;;;;;;;;2088697;28;46399;-53
2023/07/10 02:08:56;;;;;;;;;4.67;4.67;;;;;;;;2088912;28;46594;-50
2023/07/10 02:09:56;;;;;;;;;7.75;7.75;;;;;;;;2088830;28;46388;-51
2023/07/10 02:10:56;;;;;;;;;7.75;6.50;;;;;;;;2088963;28;46813;-48
2023/07/10 02:11:57;;;;;;;;;8.67;7.00;;;;;;;;2089034;28;45398;-48
2023/07/10 02:12:57;;;;;;;;;4.00;4.00;;;;;;;;2087945;28;46461;-50
2023/07/10 02:13:57;;;;;;;;;6.33;6.33;;;;;;;;2088391;28;46650;-47
2023/07/10 02:14:57;;;;;;;;;8.75;8.75;;;;;;;;2087974;28;46396;-49
2023/07/10 02:16:01;;;;;;;;;9.25;8.00;;;;;;;;2088187;28;46412;-51
2023/07/10 02:17:01;;;;;;;;;6.40;6.40;;;;;;;;2088060;28;46622;-46
2023/07/10 02:18:02;;;;;;;;;7.75;7.75;;;;;;;;2087075;28;45788;-46
2023/07/10 02:19:04;;;;;;;;;7.00;6.25;;;;;;;;2088904;28;46368;-47
2023/07/10 02:20:05;;;;;;;;;6.80;6.60;;;;;;;;2087606;28;46584;-47
2023/07/10 02:21:05;;;;;;;;;6.60;6.60;;;;;;;;2088109;28;46822;-49
2023/07/10 02:22:06;;;;;;;;;5.00;5.00;;;;;;;;2088582;28;46579;-49
2023/07/10 02:23:06;;;;;;;;;7.75;7.00;;;;;;;;2088414;28;46695;-47
2023/07/10 02:24:06;;;;;;;;;9.25;9.25;;;;;;;;2088667;28;47173;-49
2023/07/10 02:25:07;;;;;;;;;8.00;7.00;;;;;;;;2089258;28;46336;-50
2023/07/10 02:26:07;;;;;;;;;6.75;6.50;;;;;;;;2088686;28;46667;-49
2023/07/10 02:27:07;;;;;;;;;7.25;7.25;;;;;;;;2089056;28;46411;-52
2023/07/10 02:28:07;;;;;;;;;5.00;5.00;;;;;;;;2088622;28;46378;-50
2023/07/10 02:29:08;;;;;;;;;6.00;6.00;;;;;;;;2089000;28;46700;-52
2023/07/10 02:30:08;;;;;;;;;7.00;5.00;;;;;;;;2087863;28;46746;-48
2023/07/10 02:31:09;;;;;;;;;6.75;6.75;;;;;;;;2088730;28;46329;-48
2023/07/10 02:32:09;;;;;;;;;4.25;4.25;;;;;;;;2089006;28;46106;-46
2023/07/10 02:33:09;;;;;;;;;6.25;5.50;;;;;;;;2088544;28;46821;-46
2023/07/10 02:34:10;;;;;;;;;4.00;4.00;;;;;;;;2088710;28;46645;-51
2023/07/10 02:35:10;;;;;;;;;5.00;5.00;;;;;;;;2088256;28;46572;-46
2023/07/10 02:36:10;;;;;;;;;6.50;5.25;;;;;;;;2088789;28;46533;-47
2023/07/10 02:37:10;;;;;;;;;5.75;4.50;;;;;;;;2088852;28;46156;-48
2023/07/10 02:38:11;;;;;;;;;6.00;6.00;;;;;;;;2088523;28;46435;-47
2023/07/10 02:39:11;;;;;;;;;7.00;5.75;;;;;;;;2088393;28;46507;-47
2023/07/10 02:40:11;;;;;;;;;4.50;4.50;;;;;;;;2088876;28;46715;-49
2023/07/10 02:41:11;;;;;;;;;3.25;3.25;;;;;;;;2088169;28;45977;-49
2023/07/10 02:42:11;;;;;;;;;4.00;4.00;;;;;;;;2089520;28;45875;-49
2023/07/10 02:43:11;;;;;;;;;6.00;6.00;;;;;;;;2087957;28;46520;-49
2023/07/10 02:44:12;;;;;;;;;3.67;3.33;;;;;;;;2088547;28;46026;-48
2023/07/10 02:45:12;;;;;;;;;5.00;5.00;;;;;;;;2088820;28;46641;-47
2023/07/10 02:46:13;;;;;;;;;5.75;4.25;;;;;;;;2089191;28;46341;-49
2023/07/10 02:47:13;;;;;;;;;4.33;4.00;;;;;;;;2088268;28;46509;-50
2023/07/10 02:48:13;;;;;;;;;4.00;3.00;;;;;;;;2087098;28;46227;-48
2023/07/10 02:49:13;;;;;;;;;3.50;3.50;;;;;;;;2088119;28;48368;-51
2023/07/10 02:50:14;;;;;;;;;1.75;1.75;;;;;;;;2088533;28;46508;-51
2023/07/10 02:51:14;;;;;;;;;5.00;4.00;;;;;;;;2088642;28;46660;-50
2023/07/10 02:52:14;;;;;;;;;3.33;3.33;;;;;;;;2088353;28;46610;-52
2023/07/10 02:53:14;;;;;;;;;4.33;4.33;;;;;;;;2088400;28;46455;-50
2023/07/10 02:54:14;;;;;;;;;4.00;4.00;;;;;;;;2088676;28;46763;-52
2023/07/10 02:55:15;;;;;;;;;2.33;2.33;;;;;;;;2089199;28;46496;-52
2023/07/10 02:56:15;;;;;;;;;3.50;2.75;;;;;;;;2088605;28;45680;-49
2023/07/10 02:57:15;;;;;;;;;6.75;5.00;;;;;;;;2088873;28;46962;-51
2023/07/10 02:58:15;;;;;;;;;4.75;4.25;;;;;;;;2088662;28;45667;-52
2023/07/10 02:59:15;;;;;;;;;5.25;4.75;;;;;;;;2088439;28;47198;-51
2023/07/10 03:00:16;;;;;;;;;6.00;5.00;;;;;;;;2088849;28;46511;-52
2023/07/10 03:01:16;;;;;;;;;5.00;5.00;;;;;;;;2088542;28;46950;-52
2023/07/10 03:02:16;;;;;;;;;4.00;4.00;;;;;;;;2088801;28;46292;-52
2023/07/10 03:03:16;;;;;;;;;4.00;4.00;;;;;;;;2088152;28;46896;-51
2023/07/10 03:04:16;;;;;;;;;5.00;5.00;;;;;;;;2088431;28;46817;-52
2023/07/10 03:05:17;;;;;;;;;4.00;4.00;;;;;;;;2088139;28;46394;-53
2023/07/10 03:06:17;;;;;;;;;6.00;5.00;;;;;;;;2087114;28;46716;-51
2023/07/10 03:07:17;;;;;;;;;7.00;5.25;;;;;;;;2088569;28;46771;-52
2023/07/10 03:08:17;;;;;;;;;4.50;4.50;;;;;;;;2088388;28;46713;-51
2023/07/10 03:09:17;;;;;;;;;5.25;5.25;;;;;;;;2089093;28;46163;-52
2023/07/10 03:10:19;;;;;;;;;6.00;5.00;;;;;;;;2088149;28;46345;-52
2023/07/10 03:11:20;;;;;;;;;8.60;7.00;;;;;;;;2087888;28;46293;-52
2023/07/10 03:12:21;;;;;;;;;4.00;4.00;;;;;;;;2088579;28;46637;-53
2023/07/10 03:13:21;;;;;;;;;5.40;5.40;;;;;;;;2088434;28;46668;-54
2023/07/10 03:14:21;;;;;;;;;4.25;4.25;;;;;;;;2087627;28;45697;-51
2023/07/10 03:15:22;;;;;;;;;6.00;6.00;;;;;;;;2088607;28;46435;-51
2023/07/10 03:16:22;;;;;;;;;5.50;5.50;;;;;;;;2088383;28;46925;-51
2023/07/10 03:17:22;;;;;;;;;9.00;9.00;;;;;;;;2088488;28;46214;-52
2023/07/10 03:18:22;;;;;;;;;7.50;7.50;;;;;;;;2088128;28;46464;-51
2023/07/10 03:19:23;;;;;;;;;7.25;7.00;;;;;;;;2087986;28;46869;-54
2023/07/10 03:20:23;;;;;;;;;7.50;7.50;;;;;;;;2079368;28;46377;-49
2023/07/10 03:21:23;;;;;;;;;9.00;9.00;;;;;;;;2087723;28;46237;-51
2023/07/10 03:22:24;;;;;;;;;8.25;8.25;;;;;;;;2080593;28;46655;-52
2023/07/10 03:23:24;;;;;;;;;8.00;8.00;;;;;;;;2088757;28;45949;-49
2023/07/10 03:24:25;;;;;;;;;9.00;9.00;;;;;;;;2088258;28;46631;-54
2023/07/10 03:25:25;;;;;;;;;8.25;8.25;;;;;;;;2088443;28;46686;-53
2023/07/10 03:26:25;;;;;;;;;9.50;9.50;;;;;;;;2088525;28;46541;-53
2023/07/10 03:27:27;;;;;;;;;6.75;6.00;;;;;;;;2087649;28;46045;-52
2023/07/10 03:28:28;;;;;;;;;11.20;9.00;;;;;;;;2084398;28;46552;-52
2023/07/10 03:29:28;;;;;;;;;10.25;9.25;;;;;;;;2086895;28;46364;-53
2023/07/10 03:30:28;;;;;;;;;8.00;8.00;;;;;;;;2088766;28;45758;-52
2023/07/10 03:31:28;;;;;;;;;8.00;8.00;;;;;;;;2087859;28;46383;-51
2023/07/10 03:32:28;;;;;;;;;8.50;8.50;;;;;;;;2088719;28;47063;-49
2023/07/10 03:33:28;;;;;;;;;8.75;7.00;;;;;;;;2088158;28;46556;-50
2023/07/10 03:34:29;;;;;;;;;6.75;6.75;;;;;;;;2088168;28;46169;-47
2023/07/10 03:35:29;;;;;;;;;9.00;9.00;;;;;;;;2088335;28;46592;-51
2023/07/10 03:36:29;;;;;;;;;7.00;7.00;;;;;;;;2088269;28;46856;-52
2023/07/10 03:37:29;;;;;;;;;9.25;9.00;;;;;;;;2088285;28;46610;-50
2023/07/10 03:38:29;;;;;;;;;8.25;7.00;;;;;;;;2088064;28;46786;-48
2023/07/10 03:39:30;;;;;;;;;8.00;8.00;;;;;;;;2088443;28;45665;-49
2023/07/10 03:40:30;;;;;;;;;9.50;7.50;;;;;;;;2088280;28;46743;-51
2023/07/10 03:41:32;;;;;;;;;10.75;10.25;;;;;;;;2088086;28;46725;-52
2023/07/10 03:42:32;;;;;;;;;9.40;8.40;;;;;;;;2088005;28;46620;-47
2023/07/10 03:43:32;;;;;;;;;10.00;10.00;;;;;;;;2088258;28;45582;-49
2023/07/10 03:44:32;;;;;;;;;10.50;10.50;;;;;;;;2087743;28;46395;-52
2023/07/10 03:45:32;;;;;;;;;10.00;10.00;;;;;;;;2088389;28;46457;-53
2023/07/10 03:46:32;;;;;;;;;9.75;9.75;;;;;;;;2086960;28;46900;-52
2023/07/10 03:47:33;;;;;;;;;11.25;9.00;;;;;;;;2088446;28;46677;-52
2023/07/10 03:48:33;;;;;;;;;10.75;8.50;;;;;;;;2088558;28;46406;-49
2023/07/10 03:49:33;;;;;;;;;9.50;9.50;;;;;;;;2088129;28;46094;-50
2023/07/10 03:50:34;;;;;;;;;7.75;7.75;;;;;;;;2088275;28;46632;-51
2023/07/10 03:51:34;;;;;;;;;8.50;8.50;;;;;;;;2088510;28;46272;-51
2023/07/10 03:52:34;;;;;;;;;9.50;8.75;;;;;;;;2086655;28;46355;-50
2023/07/10 03:53:35;;;;;;;;;10.25;10.00;;;;;;;;2087145;28;46150;-50
2023/07/10 03:54:35;;;;;;;;;10.25;8.25;;;;;;;;2088257;28;46695;-51
2023/07/10 03:55:35;;;;;;;;;8.25;7.25;;;;;;;;2087466;28;46869;-53
2023/07/10 03:56:36;;;;;;;;;8.25;8.25;;;;;;;;2088583;28;46586;-49
2023/07/10 03:57:36;;;;;;;;;11.25;10.25;;;;;;;;2085545;28;46878;-50
2023/07/10 03:58:38;;;;;;;;;9.75;8.50;;;;;;;;2080440;28;46657;-50
2023/07/10 03:59:39;;;;;;;;;8.80;8.60;;;;;;;;2087602;28;46842;-50
2023/07/10 04:00:39;;;;;;;;;8.75;8.25;;;;;;;;2088677;28;46845;-49
2023/07/10 04:01:40;;;;;;;;;9.50;8.75;;;;;;;;2087970;28;46180;-51
2023/07/10 04:02:40;;;;;;;;;8.40;8.20;;;;;;;;2087883;28;46643;-48
2023/07/10 04:03:41;;;;;;;;;9.75;8.75;;;;;;;;2087331;28;46705;-47
2023/07/10 04:04:41;;;;;;;;;10.50;9.00;;;;;;;;2087377;28;46368;-48
2023/07/10 04:05:42;;;;;;;;;8.50;8.50;;;;;;;;2087701;28;45932;-48
2023/07/10 04:06:42;;;;;;;;;8.40;7.40;;;;;;;;2088414;28;45675;-47
2023/07/10 04:07:42;;;;;;;;;6.75;6.75;;;;;;;;2088423;28;46515;-48
2023/07/10 04:08:43;;;;;;;;;4.75;4.75;;;;;;;;2088272;28;45668;-48
2023/07/10 04:09:44;;;;;;;;;8.75;7.75;;;;;;;;2088381;28;46412;-50
2023/07/10 04:10:50;;;;;;;;;7.25;6.75;;;;;;;;2087701;28;46655;-48
2023/07/10 04:11:50;;;;;;;;;4.00;4.00;;;;;;;;2087292;28;46145;-48
2023/07/10 04:12:51;;;;;;;;;5.75;5.75;;;;;;;;2088101;28;46702;-47
2023/07/10 04:13:51;;;;;;;;;6.75;6.75;;;;;;;;2088942;28;46337;-49
2023/07/10 04:14:51;;;;;;;;;6.25;6.25;;;;;;;;2087625;28;46962;-52
2023/07/10 04:16:02;;;;;;;;;6.75;6.75;;;;;;;;2088235;28;46691;-47
2023/07/10 04:17:04;;;;;;;;;5.20;3.60;;;;;;;;2087900;28;46894;-48
2023/07/10 04:18:04;;;;;;;;;5.00;5.00;;;;;;;;2095003;28;46946;-48
2023/07/10 04:19:04;;;;;;;;;5.50;5.50;;;;;;;;2091330;28;46620;-47
2023/07/10 04:20:05;;;;;;;;;5.00;5.00;;;;;;;;2088271;28;46303;-47
2023/07/10 04:21:07;;;;;;;;;4.00;4.00;;;;;;;;2086993;28;46843;-51
2023/07/10 04:22:07;;;;;;;;;3.60;3.60;;;;;;;;2087360;28;46013;-51
2023/07/10 04:23:07;;;;;;;;;4.75;4.25;;;;;;;;2088097;28;46867;-48
2023/07/10 04:24:09;;;;;;;;;5.00;5.00;;;;;;;;2088342;28;46528;-47
2023/07/10 04:25:10;;;;;;;;;5.60;5.60;;;;;;;;2087735;28;46433;-51
2023/07/10 04:26:22;;;;;;;;;6.50;6.00;;;;;;;;2088261;28;46793;-51
2023/07/10 04:27:22;;;;;;;;;5.00;5.00;;;;;;;;2082663;28;46185;-46
2023/07/10 04:28:23;;;;;;;;;7.50;5.25;;;;;;;;2087540;28;46075;-51
2023/07/10 04:29:24;;;;;;;;;6.00;6.00;;;;;;;;2086678;28;46366;-51
2023/07/10 04:30:24;;;;;;;;;5.50;5.50;;;;;;;;2080922;28;47768;-51
2023/07/10 04:31:24;;;;;;;;;6.25;6.25;;;;;;;;2087006;28;46457;-51
2023/07/10 04:32:25;;;;;;;;;6.75;6.25;;;;;;;;2088272;28;46796;-47
2023/07/10 04:33:25;;;;;;;;;7.00;5.25;;;;;;;;2087542;28;46333;-51
2023/07/10 04:34:26;;;;;;;;;6.00;6.00;;;;;;;;2087837;28;46653;-50
2023/07/10 04:35:26;;;;;;;;;5.25;5.00;;;;;;;;2087993;28;46500;-49
2023/07/10 04:36:26;;;;;;;;;6.50;6.50;;;;;;;;2087009;28;46832;-47
2023/07/10 04:37:26;;;;;;;;;6.00;6.00;;;;;;;;2088133;28;46680;-47
2023/07/10 04:38:27;;;;;;;;;6.25;6.25;;;;;;;;2088353;28;46479;-49
2023/07/10 04:39:28;;;;;;;;;5.00;4.00;;;;;;;;2088370;28;46426;-48
2023/07/10 04:40:28;;;;;;;;;4.75;4.00;;;;;;;;2096146;28;46843;-48
2023/07/10 04:41:28;;;;;;;;;4.25;4.25;;;;;;;;2096617;28;46452;-48
2023/07/10 04:42:28;;;;;;;;;3.50;3.50;;;;;;;;2089261;28;46467;-49
2023/07/10 04:43:30;;;;;;;;;5.00;5.00;;;;;;;;2089904;28;46577;-45
2023/07/10 04:44:31;;;;;;;;;5.25;4.00;;;;;;;;2089411;28;47075;-47
2023/07/10 04:45:31;;;;;;;;;3.33;3.33;;;;;;;;2089725;28;46843;-46
2023/07/10 04:46:31;;;;;;;;;6.00;5.50;;;;;;;;2089133;28;46721;-47
2023/07/10 04:47:31;;;;;;;;;5.33;4.67;;;;;;;;2089264;28;45226;-47
2023/07/10 04:48:32;;;;;;;;;5.00;5.00;;;;;;;;2089523;28;46654;-46
2023/07/10 04:49:32;;;;;;;;;9.50;7.75;;;;;;;;2089330;28;46338;-49
2023/07/10 04:50:32;;;;;;;;;5.00;5.00;;;;;;;;2089400;28;46377;-46
2023/07/10 04:51:32;;;;;;;;;7.00;6.00;;;;;;;;2089780;28;46907;-48
2023/07/10 04:52:33;;;;;;;;;6.25;6.00;;;;;;;;2088915;28;46525;-51
2023/07/10 04:53:33;;;;;;;;;6.25;5.00;;;;;;;;2088555;28;46857;-46
2023/07/10 04:54:33;;;;;;;;;5.00;5.00;;;;;;;;2085026;28;47600;-47
2023/07/10 04:55:34;;;;;;;;;8.50;8.50;;;;;;;;2088016;28;46484;-49
2023/07/10 04:56:34;;;;;;;;;6.50;5.00;;;;;;;;2088230;28;46702;-47
2023/07/10 04:57:34;;;;;;;;;6.00;6.00;;;;;;;;2088786;28;46246;-48
2023/07/10 04:58:54;;;;;;;;;7.75;7.75;;;;;;;;2087477;28;46774;-50
2023/07/10 04:59:54;;;;;;;;;7.80;7.80;;;;;;;;2080203;28;46463;-50
2023/07/10 05:00:55;;;;;;;;;5.00;5.00;;;;;;;;2084008;28;46044;-47
2023/07/10 05:01:56;;;;;;;;;6.00;6.00;;;;;;;;2088741;28;46209;-50
2023/07/10 05:02:56;;;;;;;;;7.50;7.50;;;;;;;;2087532;28;46547;-47
2023/07/10 05:03:56;;;;;;;;;6.75;6.75;;;;;;;;2088737;28;46212;-49
2023/07/10 05:04:57;;;;;;;;;6.75;6.75;;;;;;;;2087550;28;46543;-48
2023/07/10 05:05:58;;;;;;;;;7.50;7.50;;;;;;;;2088718;28;45768;-47
2023/07/10 05:07:02;;;;;;;;;6.60;5.80;;;;;;;;2088186;28;46741;-47
2023/07/10 05:08:03;;;;;;;;;7.00;7.00;;;;;;;;2088032;28;46770;-51
2023/07/10 05:09:04;;;;;;;;;5.00;5.00;;;;;;;;2087842;28;46468;-46
2023/07/10 05:10:04;;;;;;;;;7.50;7.00;;;;;;;;2078579;28;46215;-50
2023/07/10 05:11:04;;;;;;;;;6.50;6.00;;;;;;;;2078812;28;46386;-47
2023/07/10 05:12:05;;;;;;;;;8.00;6.75;;;;;;;;2088428;28;46702;-53
2023/07/10 05:13:05;;;;;;;;;6.50;6.50;;;;;;;;2088073;28;46213;-48
2023/07/10 05:14:05;;;;;;;;;6.75;6.75;;;;;;;;2088245;28;46337;-51
2023/07/10 05:15:06;;;;;;;;;8.25;7.75;;;;;;;;2086336;28;46116;-52
2023/07/10 05:16:06;;;;;;;;;9.00;6.75;;;;;;;;2088471;28;46267;-48
2023/07/10 05:17:06;;;;;;;;;8.00;8.00;;;;;;;;2088218;28;46154;-50
2023/07/10 05:18:07;;;;;;;;;10.50;9.00;;;;;;;;2087505;28;46108;-48
2023/07/10 05:19:07;;;;;;;;;9.20;7.80;;;;;;;;2088092;28;46392;-52
2023/07/10 05:20:08;;;;;;;;;6.00;6.00;;;;;;;;2088210;28;46865;-52
2023/07/10 05:21:09;;;;;;;;;7.33;5.33;;;;;;;;2088588;28;46267;-53
2023/07/10 05:22:09;;;;;;;;;10.00;9.50;;;;;;;;2088608;28;46314;-50
2023/07/10 05:23:09;;;;;;;;;8.00;8.00;;;;;;;;2087914;28;46345;-49
2023/07/10 05:24:10;;;;;;;;;11.00;11.00;;;;;;;;2088079;28;45707;-48
2023/07/10 05:25:10;;;;;;;;;8.50;7.75;;;;;;;;2088706;28;45574;-49
2023/07/10 05:26:12;;;;;;;;;12.25;8.75;;;;;;;;2087628;28;46356;-50
2023/07/10 05:27:12;;;;;;;;;7.80;7.80;;;;;;;;2080531;28;45708;-52
2023/07/10 05:28:12;;;;;;;;;7.75;6.00;;;;;;;;2083376;28;46535;-51
2023/07/10 05:29:12;;;;;;;;;10.75;9.75;;;;;;;;2088769;28;46762;-48
2023/07/10 05:30:13;;;;;;;;;10.00;9.50;;;;;;;;2088943;28;46455;-52
2023/07/10 05:31:13;;;;;;;;;10.75;9.75;;;;;;;;2089375;28;46772;-46
2023/07/10 05:32:14;;;;;;;;;7.25;7.25;;;;;;;;2088830;28;46510;-48
2023/07/10 05:33:14;;;;;;;;;11.25;9.00;;;;;;;;2089185;28;47130;-50
2023/07/10 05:34:15;;;;;;;;;10.25;10.00;;;;;;;;2089290;28;46206;-51
2023/07/10 05:35:15;;;;;;;;;11.00;9.00;;;;;;;;2080553;28;46741;-51
2023/07/10 05:36:16;;;;;;;;;9.00;9.00;;;;;;;;2086681;28;46642;-52
2023/07/10 05:37:17;;;;;;;;;9.80;8.20;;;;;;;;2088878;28;47707;-50
2023/07/10 05:38:17;;;;;;;;;10.50;9.00;;;;;;;;2088821;28;46446;-48
2023/07/10 05:39:17;;;;;;;;;9.00;8.25;;;;;;;;2089272;28;46829;-50
2023/07/10 05:40:17;;;;;;;;;10.00;8.75;;;;;;;;2089137;28;46102;-51
2023/07/10 05:41:18;;;;;;;;;9.00;9.00;;;;;;;;2089903;28;45436;-51
2023/07/10 05:42:18;;;;;;;;;8.80;8.40;;;;;;;;2087766;28;45563;-52
2023/07/10 05:43:19;;;;;;;;;9.00;9.00;;;;;;;;2087758;28;46956;-52
2023/07/10 05:44:19;;;;;;;;;10.00;10.00;;;;;;;;2089160;28;45932;-53
2023/07/10 05:45:19;;;;;;;;;10.75;10.50;;;;;;;;2087020;28;46482;-52
2023/07/10 05:46:19;;;;;;;;;9.75;8.50;;;;;;;;2088863;28;46050;-49
2023/07/10 05:47:20;;;;;;;;;10.00;9.75;;;;;;;;2088397;28;45546;-50
2023/07/10 05:48:20;;;;;;;;;11.00;11.00;;;;;;;;2088003;28;46279;-48
2023/07/10 05:49:20;;;;;;;;;13.00;13.00;;;;;;;;2088699;28;46334;-50
2023/07/10 05:50:20;;;;;;;;;9.50;9.50;;;;;;;;2088666;28;46901;-50
2023/07/10 05:51:21;;;;;;;;;10.25;10.25;;;;;;;;2085565;28;46912;-51
2023/07/10 05:52:21;;;;;;;;;13.00;11.25;;;;;;;;2088649;28;46426;-47
2023/07/10 05:53:21;;;;;;;;;8.50;7.75;;;;;;;;2085162;28;45756;-48
2023/07/10 05:54:21;;;;;;;;;8.75;8.75;;;;;;;;2088771;28;46369;-50
2023/07/10 05:55:22;;;;;;;;;9.25;7.50;;;;;;;;2086755;28;45344;-50
2023/07/10 05:56:23;;;;;;;;;9.00;9.00;;;;;;;;2088499;28;45954;-48
2023/07/10 05:57:23;;;;;;;;;8.80;7.00;;;;;;;;2088998;28;47037;-52
2023/07/10 05:58:24;;;;;;;;;9.00;9.00;;;;;;;;2087542;28;46216;-51
2023/07/10 05:59:25;;;;;;;;;10.40;9.40;;;;;;;;2081466;28;46619;-50
2023/07/10 06:00:25;;;;;;;;;9.75;9.25;;;;;;;;2088665;28;46574;-50
2023/07/10 06:01:26;;;;;;;;;11.75;10.50;;;;;;;;2088806;28;46158;-51
2023/07/10 06:02:26;;;;;;;;;8.25;8.25;;;;;;;;2089680;28;45739;-49
2023/07/10 06:03:27;;;;;;;;;8.00;8.00;;;;;;;;2087485;28;46361;-48
2023/07/10 06:04:27;;;;;;;;;8.00;7.40;;;;;;;;2085176;28;46047;-49
2023/07/10 06:05:28;;;;;;;;;10.25;10.25;;;;;;;;2080413;28;46818;-51